This is the latest recevied weather packets stored in our database for station/object NEWPRT. If no packets are shown the sender has not sent any weather packets the latest 10 day(s).
| Time | Temp. | Humidity | Pressure | Rain* | Wind** | Luminosity | Snow |
|---|---|---|---|---|---|---|---|
| 1778107259 | - | 64% | 1023.8 hPa | 0 mm | - | - | - |
| 1778106935 | - | 65% | 1023.6 hPa | 0 mm | - | - | - |
| 1778106614 | - | 65% | 1023.8 hPa | 0 mm | - | - | - |
| 1778106289 | - | 65% | 1023.9 hPa | 0 mm | - | - | - |
| 1778105966 | - | 64% | 1024.1 hPa | 0 mm | - | - | - |
| 1778105643 | - | 63% | 1023.8 hPa | 0 mm | - | - | - |
| 1778105321 | - | 64% | 1023.9 hPa | 0 mm | - | - | - |
| 1778104997 | - | 62% | 1023.8 hPa | 0 mm | - | - | - |
| 1778104674 | - | 64% | 1024 hPa | 0 mm | - | - | - |
| 1778104351 | - | 64% | 1023.8 hPa | 0 mm | - | - | - |
| 1778104028 | - | 63% | 1023.8 hPa | 0 mm | - | - | - |
| 1778103705 | - | 64% | 1023.9 hPa | 0 mm | - | - | - |
| 1778103382 | - | 62% | 1023.5 hPa | 0 mm | - | - | - |
| 1778103059 | - | 60% | 1023.5 hPa | 0 mm | - | - | - |
| 1778102738 | - | 60% | 1023.6 hPa | 0 mm | - | - | - |
| 1778102413 | - | 56% | 1023.4 hPa | 0 mm | - | - | - |
| 1778102090 | - | 60% | 1023.6 hPa | 0 mm | - | - | - |
| 1778101767 | - | 58% | 1023.5 hPa | 0 mm | - | - | - |
| 1778101444 | - | 57% | 1023.4 hPa | 0 mm | - | - | - |
| 1778101121 | - | 58% | 1023.3 hPa | 0 mm | - | - | - |
| 1778100799 | - | 57% | 1023.4 hPa | 0 mm | - | - | - |
| 1778100475 | - | 58% | 1023.5 hPa | 0 mm | - | - | - |
| 1778100152 | - | 59% | 1023.6 hPa | 0 mm | - | - | - |
| 1778099829 | - | 58% | 1023.2 hPa | 0 mm | - | - | - |
| 1778099506 | - | 58% | 1023.2 hPa | 0 mm | - | - | - |
* Rain latest hour (hover to see other rain measurements)
** Current wind speed in m/s (hover to see current wind gust speed)